sensor_id;sensor_type;location;lat;lon;timestamp;P1;durP1;ratioP1;P2;durP2;ratioP2
11006;SDS011;8186;57.652;11.968;2022-09-21T00:00:25;4.10;;;1.00;;
11006;SDS011;8186;57.652;11.968;2022-09-21T00:02:54;1.30;;;1.00;;
11006;SDS011;8186;57.652;11.968;2022-09-21T00:05:21;1.37;;;1.00;;
11006;SDS011;8186;57.652;11.968;2022-09-21T00:07:48;2.10;;;0.90;;
11006;SDS011;8186;57.652;11.968;2022-09-21T00:10:17;1.03;;;0.80;;
11006;SDS011;8186;57.652;11.968;2022-09-21T00:12:44;4.97;;;1.00;;
11006;SDS011;8186;57.652;11.968;2022-09-21T00:15:13;5.00;;;0.93;;
11006;SDS011;8186;57.652;11.968;2022-09-21T00:17:41;1.53;;;1.00;;
11006;SDS011;8186;57.652;11.968;2022-09-21T00:20:08;1.80;;;1.00;;
11006;SDS011;8186;57.652;11.968;2022-09-21T00:22:35;3.17;;;1.23;;
11006;SDS011;8186;57.652;11.968;2022-09-21T00:25:03;1.07;;;0.80;;
11006;SDS011;8186;57.652;11.968;2022-09-21T00:27:32;2.00;;;1.00;;
11006;SDS011;8186;57.652;11.968;2022-09-21T00:29:59;3.37;;;1.07;;
11006;SDS011;8186;57.652;11.968;2022-09-21T00:32:27;1.50;;;1.00;;
11006;SDS011;8186;57.652;11.968;2022-09-21T00:34:55;2.70;;;1.63;;
11006;SDS011;8186;57.652;11.968;2022-09-21T00:37:22;4.23;;;1.00;;
11006;SDS011;8186;57.652;11.968;2022-09-21T00:39:49;3.43;;;1.00;;
11006;SDS011;8186;57.652;11.968;2022-09-21T00:42:16;5.23;;;1.30;;
11006;SDS011;8186;57.652;11.968;2022-09-21T00:44:46;2.03;;;1.07;;
11006;SDS011;8186;57.652;11.968;2022-09-21T00:47:13;3.97;;;0.87;;
11006;SDS011;8186;57.652;11.968;2022-09-21T00:49:42;3.20;;;1.03;;
11006;SDS011;8186;57.652;11.968;2022-09-21T00:52:10;3.47;;;1.17;;
11006;SDS011;8186;57.652;11.968;2022-09-21T00:54:40;1.60;;;0.97;;
11006;SDS011;8186;57.652;11.968;2022-09-21T00:57:08;1.10;;;0.80;;
11006;SDS011;8186;57.652;11.968;2022-09-21T00:59:36;1.53;;;1.00;;
11006;SDS011;8186;57.652;11.968;2022-09-21T01:02:05;3.10;;;0.97;;
11006;SDS011;8186;57.652;11.968;2022-09-21T01:04:32;1.57;;;1.00;;
11006;SDS011;8186;57.652;11.968;2022-09-21T01:07:00;2.70;;;1.20;;
11006;SDS011;8186;57.652;11.968;2022-09-21T01:09:29;1.50;;;1.10;;
11006;SDS011;8186;57.652;11.968;2022-09-21T01:12:00;1.97;;;1.00;;
11006;SDS011;8186;57.652;11.968;2022-09-21T01:17:23;2.53;;;1.10;;
11006;SDS011;8186;57.652;11.968;2022-09-21T01:22:52;1.87;;;1.20;;
11006;SDS011;8186;57.652;11.968;2022-09-21T01:25:27;1.53;;;0.80;;
11006;SDS011;8186;57.652;11.968;2022-09-21T01:28:03;3.47;;;1.00;;
11006;SDS011;8186;57.652;11.968;2022-09-21T01:30:35;1.80;;;0.93;;
11006;SDS011;8186;57.652;11.968;2022-09-21T01:33:04;1.93;;;1.03;;
11006;SDS011;8186;57.652;11.968;2022-09-21T01:35:33;2.10;;;1.10;;
11006;SDS011;8186;57.652;11.968;2022-09-21T01:38:03;2.40;;;1.27;;
11006;SDS011;8186;57.652;11.968;2022-09-21T01:40:32;2.17;;;0.90;;
11006;SDS011;8186;57.652;11.968;2022-09-21T01:43:02;2.60;;;0.90;;
11006;SDS011;8186;57.652;11.968;2022-09-21T01:45:31;1.73;;;1.10;;
11006;SDS011;8186;57.652;11.968;2022-09-21T01:48:00;1.90;;;1.30;;
11006;SDS011;8186;57.652;11.968;2022-09-21T01:50:30;1.83;;;0.90;;
11006;SDS011;8186;57.652;11.968;2022-09-21T01:52:59;1.20;;;0.80;;
11006;SDS011;8186;57.652;11.968;2022-09-21T01:55:29;2.80;;;1.00;;
11006;SDS011;8186;57.652;11.968;2022-09-21T01:58:00;1.50;;;1.40;;
11006;SDS011;8186;57.652;11.968;2022-09-21T02:00:31;1.47;;;0.87;;
11006;SDS011;8186;57.652;11.968;2022-09-21T02:03:03;1.87;;;1.20;;
11006;SDS011;8186;57.652;11.968;2022-09-21T02:05:31;0.97;;;0.87;;
11006;SDS011;8186;57.652;11.968;2022-09-21T02:07:58;1.43;;;0.87;;
11006;SDS011;8186;57.652;11.968;2022-09-21T02:10:27;1.23;;;0.90;;
11006;SDS011;8186;57.652;11.968;2022-09-21T02:12:57;1.27;;;0.97;;
11006;SDS011;8186;57.652;11.968;2022-09-21T02:15:28;2.07;;;1.10;;
11006;SDS011;8186;57.652;11.968;2022-09-21T02:17:59;1.00;;;0.90;;
11006;SDS011;8186;57.652;11.968;2022-09-21T02:20:33;2.07;;;1.10;;
11006;SDS011;8186;57.652;11.968;2022-09-21T02:23:03;1.30;;;0.87;;
11006;SDS011;8186;57.652;11.968;2022-09-21T02:25:36;1.10;;;0.93;;
11006;SDS011;8186;57.652;11.968;2022-09-21T02:28:07;1.37;;;1.07;;
11006;SDS011;8186;57.652;11.968;2022-09-21T02:30:38;1.47;;;1.10;;
11006;SDS011;8186;57.652;11.968;2022-09-21T02:33:09;2.17;;;1.00;;
11006;SDS011;8186;57.652;11.968;2022-09-21T02:35:39;1.50;;;1.20;;
11006;SDS011;8186;57.652;11.968;2022-09-21T02:38:10;1.73;;;1.20;;
11006;SDS011;8186;57.652;11.968;2022-09-21T02:40:42;2.27;;;0.90;;
11006;SDS011;8186;57.652;11.968;2022-09-21T02:43:16;1.30;;;0.90;;
11006;SDS011;8186;57.652;11.968;2022-09-21T02:45:47;1.97;;;1.00;;
11006;SDS011;8186;57.652;11.968;2022-09-21T02:48:19;1.03;;;0.90;;
11006;SDS011;8186;57.652;11.968;2022-09-21T02:50:50;3.43;;;1.23;;
11006;SDS011;8186;57.652;11.968;2022-09-21T02:53:18;3.03;;;1.00;;
11006;SDS011;8186;57.652;11.968;2022-09-21T02:55:48;2.23;;;1.00;;
11006;SDS011;8186;57.652;11.968;2022-09-21T02:58:16;1.47;;;1.03;;
11006;SDS011;8186;57.652;11.968;2022-09-21T03:00:43;1.17;;;1.07;;
11006;SDS011;8186;57.652;11.968;2022-09-21T03:03:14;2.53;;;0.87;;
11006;SDS011;8186;57.652;11.968;2022-09-21T03:05:44;1.33;;;1.10;;
11006;SDS011;8186;57.652;11.968;2022-09-21T03:08:12;1.53;;;1.00;;
11006;SDS011;8186;57.652;11.968;2022-09-21T03:10:39;1.43;;;1.10;;
11006;SDS011;8186;57.652;11.968;2022-09-21T03:13:06;1.97;;;1.10;;
11006;SDS011;8186;57.652;11.968;2022-09-21T03:15:34;1.10;;;0.90;;
11006;SDS011;8186;57.652;11.968;2022-09-21T03:18:01;1.23;;;1.10;;
11006;SDS011;8186;57.652;11.968;2022-09-21T03:20:29;0.97;;;0.83;;
11006;SDS011;8186;57.652;11.968;2022-09-21T03:22:58;2.37;;;0.90;;
11006;SDS011;8186;57.652;11.968;2022-09-21T03:25:24;0.83;;;0.80;;
11006;SDS011;8186;57.652;11.968;2022-09-21T03:27:51;2.10;;;1.40;;
11006;SDS011;8186;57.652;11.968;2022-09-21T03:30:18;1.63;;;1.20;;
11006;SDS011;8186;57.652;11.968;2022-09-21T03:32:47;1.13;;;1.00;;
11006;SDS011;8186;57.652;11.968;2022-09-21T03:35:14;0.73;;;0.63;;
11006;SDS011;8186;57.652;11.968;2022-09-21T03:37:41;3.40;;;1.10;;
11006;SDS011;8186;57.652;11.968;2022-09-21T03:40:09;1.10;;;0.97;;
11006;SDS011;8186;57.652;11.968;2022-09-21T03:42:37;0.80;;;0.80;;
11006;SDS011;8186;57.652;11.968;2022-09-21T03:45:04;1.27;;;0.80;;
11006;SDS011;8186;57.652;11.968;2022-09-21T03:47:32;1.07;;;0.80;;
11006;SDS011;8186;57.652;11.968;2022-09-21T03:49:59;1.13;;;0.87;;
11006;SDS011;8186;57.652;11.968;2022-09-21T03:52:26;1.27;;;0.90;;
11006;SDS011;8186;57.652;11.968;2022-09-21T03:54:52;1.43;;;1.03;;
11006;SDS011;8186;57.652;11.968;2022-09-21T03:57:21;1.33;;;1.07;;
11006;SDS011;8186;57.652;11.968;2022-09-21T03:59:48;1.40;;;1.10;;
11006;SDS011;8186;57.652;11.968;2022-09-21T04:02:14;2.03;;;1.00;;
11006;SDS011;8186;57.652;11.968;2022-09-21T04:04:42;1.73;;;1.00;;
11006;SDS011;8186;57.652;11.968;2022-09-21T04:07:08;1.47;;;0.97;;
11006;SDS011;8186;57.652;11.968;2022-09-21T04:09:35;0.87;;;0.83;;
11006;SDS011;8186;57.652;11.968;2022-09-21T04:12:02;1.90;;;1.13;;
11006;SDS011;8186;57.652;11.968;2022-09-21T04:14:30;0.90;;;0.70;;
11006;SDS011;8186;57.652;11.968;2022-09-21T04:16:57;1.10;;;0.90;;
11006;SDS011;8186;57.652;11.968;2022-09-21T04:19:24;4.03;;;1.50;;
11006;SDS011;8186;57.652;11.968;2022-09-21T04:21:51;2.77;;;1.43;;
11006;SDS011;8186;57.652;11.968;2022-09-21T04:24:20;1.23;;;0.87;;
11006;SDS011;8186;57.652;11.968;2022-09-21T04:26:47;2.57;;;1.00;;
11006;SDS011;8186;57.652;11.968;2022-09-21T04:29:14;1.10;;;0.90;;
11006;SDS011;8186;57.652;11.968;2022-09-21T04:31:42;2.17;;;1.00;;
11006;SDS011;8186;57.652;11.968;2022-09-21T04:34:11;3.57;;;0.90;;
11006;SDS011;8186;57.652;11.968;2022-09-21T04:36:38;1.33;;;0.80;;
11006;SDS011;8186;57.652;11.968;2022-09-21T04:39:05;1.50;;;1.00;;
11006;SDS011;8186;57.652;11.968;2022-09-21T04:41:32;1.20;;;0.97;;
11006;SDS011;8186;57.652;11.968;2022-09-21T04:43:59;1.23;;;0.93;;
11006;SDS011;8186;57.652;11.968;2022-09-21T04:46:26;2.10;;;0.90;;
11006;SDS011;8186;57.652;11.968;2022-09-21T04:48:54;1.10;;;0.90;;
11006;SDS011;8186;57.652;11.968;2022-09-21T04:51:21;3.60;;;1.00;;
11006;SDS011;8186;57.652;11.968;2022-09-21T04:53:48;2.43;;;1.30;;
11006;SDS011;8186;57.652;11.968;2022-09-21T04:56:15;1.17;;;0.87;;
11006;SDS011;8186;57.652;11.968;2022-09-21T04:58:42;0.80;;;0.80;;
11006;SDS011;8186;57.652;11.968;2022-09-21T05:01:12;2.23;;;1.20;;
11006;SDS011;8186;57.652;11.968;2022-09-21T05:03:38;1.17;;;1.00;;
11006;SDS011;8186;57.652;11.968;2022-09-21T05:06:07;2.73;;;0.90;;
11006;SDS011;8186;57.652;11.968;2022-09-21T05:08:37;1.00;;;0.90;;
11006;SDS011;8186;57.652;11.968;2022-09-21T05:11:22;2.07;;;1.07;;
11006;SDS011;8186;57.652;11.968;2022-09-21T05:13:49;1.13;;;0.83;;
11006;SDS011;8186;57.652;11.968;2022-09-21T05:16:17;3.53;;;1.20;;
11006;SDS011;8186;57.652;11.968;2022-09-21T05:18:44;3.00;;;0.87;;
11006;SDS011;8186;57.652;11.968;2022-09-21T05:21:13;1.00;;;0.90;;
11006;SDS011;8186;57.652;11.968;2022-09-21T05:23:40;1.50;;;1.30;;
11006;SDS011;8186;57.652;11.968;2022-09-21T05:26:07;2.17;;;0.90;;
11006;SDS011;8186;57.652;11.968;2022-09-21T05:28:34;1.10;;;1.00;;
11006;SDS011;8186;57.652;11.968;2022-09-21T05:31:02;2.33;;;1.00;;
11006;SDS011;8186;57.652;11.968;2022-09-21T05:33:31;1.17;;;0.97;;
11006;SDS011;8186;57.652;11.968;2022-09-21T05:36:01;2.30;;;1.40;;
11006;SDS011;8186;57.652;11.968;2022-09-21T05:38:33;1.70;;;1.10;;
11006;SDS011;8186;57.652;11.968;2022-09-21T05:41:00;1.53;;;1.20;;
11006;SDS011;8186;57.652;11.968;2022-09-21T05:43:28;1.60;;;1.10;;
11006;SDS011;8186;57.652;11.968;2022-09-21T05:45:56;3.00;;;0.97;;
11006;SDS011;8186;57.652;11.968;2022-09-21T05:48:27;3.83;;;1.80;;
11006;SDS011;8186;57.652;11.968;2022-09-21T05:50:58;3.97;;;1.40;;
11006;SDS011;8186;57.652;11.968;2022-09-21T05:53:44;2.50;;;1.23;;
11006;SDS011;8186;57.652;11.968;2022-09-21T05:56:17;2.40;;;1.23;;
11006;SDS011;8186;57.652;11.968;2022-09-21T05:58:52;3.43;;;1.10;;
11006;SDS011;8186;57.652;11.968;2022-09-21T06:01:30;1.67;;;1.13;;
11006;SDS011;8186;57.652;11.968;2022-09-21T06:04:03;1.60;;;1.23;;
11006;SDS011;8186;57.652;11.968;2022-09-21T06:06:33;1.90;;;1.20;;
11006;SDS011;8186;57.652;11.968;2022-09-21T06:09:02;2.73;;;1.03;;
11006;SDS011;8186;57.652;11.968;2022-09-21T06:11:28;1.43;;;1.07;;
11006;SDS011;8186;57.652;11.968;2022-09-21T06:13:55;2.23;;;1.23;;
11006;SDS011;8186;57.652;11.968;2022-09-21T06:16:22;2.90;;;1.13;;
11006;SDS011;8186;57.652;11.968;2022-09-21T06:18:49;2.57;;;1.37;;
11006;SDS011;8186;57.652;11.968;2022-09-21T06:21:16;3.23;;;1.17;;
11006;SDS011;8186;57.652;11.968;2022-09-21T06:23:42;2.80;;;1.00;;
11006;SDS011;8186;57.652;11.968;2022-09-21T06:26:11;1.23;;;1.00;;
11006;SDS011;8186;57.652;11.968;2022-09-21T06:28:37;2.53;;;1.10;;
11006;SDS011;8186;57.652;11.968;2022-09-21T06:31:04;2.10;;;1.42;;
11006;SDS011;8186;57.652;11.968;2022-09-21T06:33:31;5.30;;;1.33;;
11006;SDS011;8186;57.652;11.968;2022-09-21T06:36:00;1.83;;;1.33;;
11006;SDS011;8186;57.652;11.968;2022-09-21T06:38:27;1.87;;;1.13;;
11006;SDS011;8186;57.652;11.968;2022-09-21T06:40:54;1.20;;;1.00;;
11006;SDS011;8186;57.652;11.968;2022-09-21T06:43:22;3.47;;;1.47;;
11006;SDS011;8186;57.652;11.968;2022-09-21T06:45:52;1.50;;;1.30;;
11006;SDS011;8186;57.652;11.968;2022-09-21T06:48:20;2.40;;;1.27;;
11006;SDS011;8186;57.652;11.968;2022-09-21T06:50:47;2.73;;;1.37;;
11006;SDS011;8186;57.652;11.968;2022-09-21T06:53:14;2.53;;;1.30;;
11006;SDS011;8186;57.652;11.968;2022-09-21T06:55:41;2.93;;;1.10;;
11006;SDS011;8186;57.652;11.968;2022-09-21T06:58:07;2.17;;;1.20;;
11006;SDS011;8186;57.652;11.968;2022-09-21T07:00:36;2.93;;;1.60;;
11006;SDS011;8186;57.652;11.968;2022-09-21T07:03:02;3.83;;;1.30;;
11006;SDS011;8186;57.652;11.968;2022-09-21T07:05:30;5.43;;;1.60;;
11006;SDS011;8186;57.652;11.968;2022-09-21T07:07:58;3.07;;;1.33;;
11006;SDS011;8186;57.652;11.968;2022-09-21T07:10:25;2.97;;;1.13;;
11006;SDS011;8186;57.652;11.968;2022-09-21T07:12:51;2.73;;;1.57;;
11006;SDS011;8186;57.652;11.968;2022-09-21T07:15:18;4.90;;;2.00;;
11006;SDS011;8186;57.652;11.968;2022-09-21T07:17:47;5.73;;;1.80;;
11006;SDS011;8186;57.652;11.968;2022-09-21T07:20:14;6.23;;;1.80;;
11006;SDS011;8186;57.652;11.968;2022-09-21T07:22:41;2.00;;;1.60;;
11006;SDS011;8186;57.652;11.968;2022-09-21T07:25:08;6.37;;;1.60;;
11006;SDS011;8186;57.652;11.968;2022-09-21T07:27:35;2.63;;;1.30;;
11006;SDS011;8186;57.652;11.968;2022-09-21T07:30:02;2.30;;;1.37;;
11006;SDS011;8186;57.652;11.968;2022-09-21T07:32:30;3.87;;;1.60;;
11006;SDS011;8186;57.652;11.968;2022-09-21T07:34:58;3.07;;;1.53;;
11006;SDS011;8186;57.652;11.968;2022-09-21T07:37:25;5.27;;;1.97;;
11006;SDS011;8186;57.652;11.968;2022-09-21T07:39:53;4.27;;;1.57;;
11006;SDS011;8186;57.652;11.968;2022-09-21T07:42:20;4.73;;;1.70;;
11006;SDS011;8186;57.652;11.968;2022-09-21T07:44:48;2.90;;;1.57;;
11006;SDS011;8186;57.652;11.968;2022-09-21T07:47:15;5.63;;;1.90;;
11006;SDS011;8186;57.652;11.968;2022-09-21T07:49:42;4.33;;;1.70;;
11006;SDS011;8186;57.652;11.968;2022-09-21T07:52:12;6.83;;;1.70;;
11006;SDS011;8186;57.652;11.968;2022-09-21T07:54:39;4.97;;;1.97;;
11006;SDS011;8186;57.652;11.968;2022-09-21T07:57:06;4.90;;;1.93;;
11006;SDS011;8186;57.652;11.968;2022-09-21T07:59:50;4.53;;;1.50;;
11006;SDS011;8186;57.652;11.968;2022-09-21T08:02:17;4.70;;;1.57;;
11006;SDS011;8186;57.652;11.968;2022-09-21T08:04:44;2.70;;;1.50;;
11006;SDS011;8186;57.652;11.968;2022-09-21T08:07:12;8.77;;;1.90;;
11006;SDS011;8186;57.652;11.968;2022-09-21T08:09:39;3.77;;;1.73;;
11006;SDS011;8186;57.652;11.968;2022-09-21T08:12:06;6.50;;;1.70;;
11006;SDS011;8186;57.652;11.968;2022-09-21T08:14:33;2.57;;;1.30;;
11006;SDS011;8186;57.652;11.968;2022-09-21T08:17:00;6.03;;;1.50;;
11006;SDS011;8186;57.652;11.968;2022-09-21T08:19:27;4.03;;;1.40;;
11006;SDS011;8186;57.652;11.968;2022-09-21T08:21:53;3.90;;;1.60;;
11006;SDS011;8186;57.652;11.968;2022-09-21T08:24:22;1.27;;;1.00;;
11006;SDS011;8186;57.652;11.968;2022-09-21T08:26:49;2.57;;;1.13;;
11006;SDS011;8186;57.652;11.968;2022-09-21T08:29:16;5.97;;;1.10;;
11006;SDS011;8186;57.652;11.968;2022-09-21T08:31:43;1.63;;;1.00;;
11006;SDS011;8186;57.652;11.968;2022-09-21T08:34:10;3.97;;;1.40;;
11006;SDS011;8186;57.652;11.968;2022-09-21T08:36:37;6.23;;;1.30;;
11006;SDS011;8186;57.652;11.968;2022-09-21T08:39:05;1.50;;;0.70;;
11006;SDS011;8186;57.652;11.968;2022-09-21T08:41:46;2.50;;;1.00;;
11006;SDS011;8186;57.652;11.968;2022-09-21T08:44:18;1.30;;;0.63;;
11006;SDS011;8186;57.652;11.968;2022-09-21T08:46:50;5.30;;;1.43;;
11006;SDS011;8186;57.652;11.968;2022-09-21T08:49:21;2.83;;;0.70;;
11006;SDS011;8186;57.652;11.968;2022-09-21T08:51:52;1.00;;;0.60;;
11006;SDS011;8186;57.652;11.968;2022-09-21T08:54:23;2.27;;;0.90;;
11006;SDS011;8186;57.652;11.968;2022-09-21T08:56:55;3.47;;;0.80;;
11006;SDS011;8186;57.652;11.968;2022-09-21T08:59:22;2.37;;;0.80;;
11006;SDS011;8186;57.652;11.968;2022-09-21T09:01:52;2.67;;;0.70;;
11006;SDS011;8186;57.652;11.968;2022-09-21T09:04:27;1.30;;;0.70;;
11006;SDS011;8186;57.652;11.968;2022-09-21T09:07:11;2.13;;;0.73;;
11006;SDS011;8186;57.652;11.968;2022-09-21T09:10:02;2.13;;;0.63;;
11006;SDS011;8186;57.652;11.968;2022-09-21T09:12:44;2.10;;;0.90;;
11006;SDS011;8186;57.652;11.968;2022-09-21T09:15:19;2.30;;;0.60;;
11006;SDS011;8186;57.652;11.968;2022-09-21T09:17:56;2.93;;;0.97;;
11006;SDS011;8186;57.652;11.968;2022-09-21T09:20:27;2.67;;;0.70;;
11006;SDS011;8186;57.652;11.968;2022-09-21T09:22:58;2.60;;;0.80;;
11006;SDS011;8186;57.652;11.968;2022-09-21T09:25:31;1.77;;;0.60;;
11006;SDS011;8186;57.652;11.968;2022-09-21T09:28:04;1.87;;;0.60;;
11006;SDS011;8186;57.652;11.968;2022-09-21T09:30:40;2.83;;;0.70;;
11006;SDS011;8186;57.652;11.968;2022-09-21T09:33:09;1.63;;;0.63;;
11006;SDS011;8186;57.652;11.968;2022-09-21T09:35:42;2.97;;;0.73;;
11006;SDS011;8186;57.652;11.968;2022-09-21T09:38:13;1.57;;;0.77;;
11006;SDS011;8186;57.652;11.968;2022-09-21T09:40:55;2.00;;;0.80;;
11006;SDS011;8186;57.652;11.968;2022-09-21T09:43:35;1.63;;;0.90;;
11006;SDS011;8186;57.652;11.968;2022-09-21T09:46:08;2.37;;;0.77;;
11006;SDS011;8186;57.652;11.968;2022-09-21T09:48:45;1.37;;;0.50;;
11006;SDS011;8186;57.652;11.968;2022-09-21T09:51:15;4.33;;;1.03;;
11006;SDS011;8186;57.652;11.968;2022-09-21T09:53:43;2.50;;;0.63;;
11006;SDS011;8186;57.652;11.968;2022-09-21T09:56:10;2.07;;;0.80;;
11006;SDS011;8186;57.652;11.968;2022-09-21T09:58:42;2.20;;;0.70;;
11006;SDS011;8186;57.652;11.968;2022-09-21T10:04:04;1.43;;;0.70;;
11006;SDS011;8186;57.652;11.968;2022-09-21T10:06:32;2.47;;;1.07;;
11006;SDS011;8186;57.652;11.968;2022-09-21T10:08:59;1.83;;;0.80;;
11006;SDS011;8186;57.652;11.968;2022-09-21T10:11:33;3.47;;;0.70;;
11006;SDS011;8186;57.652;11.968;2022-09-21T10:14:09;3.33;;;0.80;;
11006;SDS011;8186;57.652;11.968;2022-09-21T10:16:42;4.93;;;1.07;;
11006;SDS011;8186;57.652;11.968;2022-09-21T10:19:12;1.57;;;0.57;;
11006;SDS011;8186;57.652;11.968;2022-09-21T10:21:41;3.47;;;0.93;;
11006;SDS011;8186;57.652;11.968;2022-09-21T10:24:13;2.30;;;0.77;;
11006;SDS011;8186;57.652;11.968;2022-09-21T10:26:46;2.80;;;0.90;;
11006;SDS011;8186;57.652;11.968;2022-09-21T10:29:19;4.00;;;1.17;;
11006;SDS011;8186;57.652;11.968;2022-09-21T10:31:55;2.30;;;0.70;;
11006;SDS011;8186;57.652;11.968;2022-09-21T10:34:22;2.13;;;0.80;;
11006;SDS011;8186;57.652;11.968;2022-09-21T10:36:52;4.27;;;1.00;;
11006;SDS011;8186;57.652;11.968;2022-09-21T10:39:21;1.17;;;0.70;;
11006;SDS011;8186;57.652;11.968;2022-09-21T10:41:51;2.37;;;0.67;;
11006;SDS011;8186;57.652;11.968;2022-09-21T10:44:21;3.23;;;0.90;;
11006;SDS011;8186;57.652;11.968;2022-09-21T10:46:49;1.50;;;0.60;;
11006;SDS011;8186;57.652;11.968;2022-09-21T10:49:18;3.57;;;0.80;;
11006;SDS011;8186;57.652;11.968;2022-09-21T10:51:47;3.83;;;1.10;;
11006;SDS011;8186;57.652;11.968;2022-09-21T10:54:20;2.03;;;0.80;;
11006;SDS011;8186;57.652;11.968;2022-09-21T10:56:53;2.07;;;0.70;;
11006;SDS011;8186;57.652;11.968;2022-09-21T10:59:25;1.70;;;0.70;;
11006;SDS011;8186;57.652;11.968;2022-09-21T11:01:54;2.50;;;0.70;;
11006;SDS011;8186;57.652;11.968;2022-09-21T11:04:25;1.90;;;1.13;;
11006;SDS011;8186;57.652;11.968;2022-09-21T11:06:56;1.60;;;0.70;;
11006;SDS011;8186;57.652;11.968;2022-09-21T11:09:27;1.73;;;0.77;;
11006;SDS011;8186;57.652;11.968;2022-09-21T11:11:58;3.93;;;0.93;;
11006;SDS011;8186;57.652;11.968;2022-09-21T11:14:38;2.40;;;0.77;;
11006;SDS011;8186;57.652;11.968;2022-09-21T11:17:10;2.10;;;0.60;;
11006;SDS011;8186;57.652;11.968;2022-09-21T11:19:41;2.10;;;0.50;;
11006;SDS011;8186;57.652;11.968;2022-09-21T11:22:11;2.07;;;0.70;;
11006;SDS011;8186;57.652;11.968;2022-09-21T11:24:43;2.27;;;0.77;;
11006;SDS011;8186;57.652;11.968;2022-09-21T11:27:15;2.43;;;0.60;;
11006;SDS011;8186;57.652;11.968;2022-09-21T11:29:48;2.63;;;0.57;;
11006;SDS011;8186;57.652;11.968;2022-09-21T11:35:25;2.23;;;0.60;;
11006;SDS011;8186;57.652;11.968;2022-09-21T11:38:03;1.43;;;0.73;;
11006;SDS011;8186;57.652;11.968;2022-09-21T11:40:39;1.37;;;0.57;;
11006;SDS011;8186;57.652;11.968;2022-09-21T11:43:16;1.93;;;0.70;;
11006;SDS011;8186;57.652;11.968;2022-09-21T11:45:55;1.03;;;0.50;;
11006;SDS011;8186;57.652;11.968;2022-09-21T11:48:30;2.20;;;0.97;;
11006;SDS011;8186;57.652;11.968;2022-09-21T11:51:08;2.00;;;0.60;;
11006;SDS011;8186;57.652;11.968;2022-09-21T11:53:47;2.23;;;0.90;;
11006;SDS011;8186;57.652;11.968;2022-09-21T11:56:34;2.00;;;0.80;;
11006;SDS011;8186;57.652;11.968;2022-09-21T11:59:09;3.50;;;0.90;;
11006;SDS011;8186;57.652;11.968;2022-09-21T12:01:50;1.40;;;0.70;;
11006;SDS011;8186;57.652;11.968;2022-09-21T12:04:28;2.33;;;0.60;;
11006;SDS011;8186;57.652;11.968;2022-09-21T12:07:06;1.50;;;0.60;;
11006;SDS011;8186;57.652;11.968;2022-09-21T12:12:37;3.20;;;0.70;;
11006;SDS011;8186;57.652;11.968;2022-09-21T12:15:08;5.23;;;1.17;;
11006;SDS011;8186;57.652;11.968;2022-09-21T12:17:42;1.30;;;0.63;;
11006;SDS011;8186;57.652;11.968;2022-09-21T12:20:15;1.73;;;0.80;;
11006;SDS011;8186;57.652;11.968;2022-09-21T12:22:47;2.87;;;0.57;;
11006;SDS011;8186;57.652;11.968;2022-09-21T12:25:18;1.80;;;0.70;;
11006;SDS011;8186;57.652;11.968;2022-09-21T12:27:47;2.23;;;0.80;;
11006;SDS011;8186;57.652;11.968;2022-09-21T12:30:16;2.00;;;0.63;;
11006;SDS011;8186;57.652;11.968;2022-09-21T12:32:50;1.50;;;0.50;;
11006;SDS011;8186;57.652;11.968;2022-09-21T12:35:23;1.27;;;0.67;;
11006;SDS011;8186;57.652;11.968;2022-09-21T12:37:56;0.87;;;0.60;;
11006;SDS011;8186;57.652;11.968;2022-09-21T12:40:27;2.67;;;0.80;;
11006;SDS011;8186;57.652;11.968;2022-09-21T12:43:00;2.80;;;0.70;;
11006;SDS011;8186;57.652;11.968;2022-09-21T12:45:33;2.07;;;0.80;;
11006;SDS011;8186;57.652;11.968;2022-09-21T12:48:05;3.87;;;0.67;;
11006;SDS011;8186;57.652;11.968;2022-09-21T12:50:37;2.00;;;0.60;;
11006;SDS011;8186;57.652;11.968;2022-09-21T12:53:08;3.37;;;0.83;;
11006;SDS011;8186;57.652;11.968;2022-09-21T12:55:41;2.87;;;0.80;;
11006;SDS011;8186;57.652;11.968;2022-09-21T12:58:16;3.00;;;1.10;;
11006;SDS011;8186;57.652;11.968;2022-09-21T13:00:51;2.80;;;0.90;;
11006;SDS011;8186;57.652;11.968;2022-09-21T13:03:26;2.23;;;0.83;;
11006;SDS011;8186;57.652;11.968;2022-09-21T13:06:05;2.63;;;0.80;;
11006;SDS011;8186;57.652;11.968;2022-09-21T13:08:45;1.83;;;0.93;;
11006;SDS011;8186;57.652;11.968;2022-09-21T13:11:13;2.67;;;0.87;;
11006;SDS011;8186;57.652;11.968;2022-09-21T13:13:45;2.07;;;0.60;;
11006;SDS011;8186;57.652;11.968;2022-09-21T13:16:25;1.23;;;0.77;;
11006;SDS011;8186;57.652;11.968;2022-09-21T13:18:57;1.47;;;0.60;;
11006;SDS011;8186;57.652;11.968;2022-09-21T13:21:25;2.30;;;0.70;;
11006;SDS011;8186;57.652;11.968;2022-09-21T13:23:55;1.10;;;0.70;;
11006;SDS011;8186;57.652;11.968;2022-09-21T13:26:28;1.60;;;0.57;;
11006;SDS011;8186;57.652;11.968;2022-09-21T13:29:05;2.50;;;0.60;;
11006;SDS011;8186;57.652;11.968;2022-09-21T13:31:54;1.43;;;0.50;;
11006;SDS011;8186;57.652;11.968;2022-09-21T13:34:25;1.60;;;0.67;;
11006;SDS011;8186;57.652;11.968;2022-09-21T13:43:17;3.87;;;0.70;;
11006;SDS011;8186;57.652;11.968;2022-09-21T13:45:55;1.83;;;0.80;;
11006;SDS011;8186;57.652;11.968;2022-09-21T13:48:26;2.13;;;0.77;;
11006;SDS011;8186;57.652;11.968;2022-09-21T13:50:59;2.20;;;0.80;;
11006;SDS011;8186;57.652;11.968;2022-09-21T13:53:33;2.47;;;0.80;;
11006;SDS011;8186;57.652;11.968;2022-09-21T13:56:05;2.43;;;1.07;;
11006;SDS011;8186;57.652;11.968;2022-09-21T13:58:34;2.20;;;0.90;;
11006;SDS011;8186;57.652;11.968;2022-09-21T14:01:06;3.30;;;0.63;;
11006;SDS011;8186;57.652;11.968;2022-09-21T14:03:39;2.03;;;1.00;;
11006;SDS011;8186;57.652;11.968;2022-09-21T14:06:11;1.07;;;0.63;;
11006;SDS011;8186;57.652;11.968;2022-09-21T14:08:44;2.90;;;1.10;;
11006;SDS011;8186;57.652;11.968;2022-09-21T14:11:15;1.70;;;0.67;;
11006;SDS011;8186;57.652;11.968;2022-09-21T14:13:44;4.63;;;0.70;;
11006;SDS011;8186;57.652;11.968;2022-09-21T14:16:25;2.03;;;0.97;;
11006;SDS011;8186;57.652;11.968;2022-09-21T14:28:18;4.33;;;0.70;;
11006;SDS011;8186;57.652;11.968;2022-09-21T14:30:55;1.47;;;0.87;;
11006;SDS011;8186;57.652;11.968;2022-09-21T14:33:31;5.13;;;1.00;;
11006;SDS011;8186;57.652;11.968;2022-09-21T14:36:04;5.33;;;1.03;;
11006;SDS011;8186;57.652;11.968;2022-09-21T14:38:36;1.20;;;0.50;;
11006;SDS011;8186;57.652;11.968;2022-09-21T14:41:10;1.97;;;0.83;;
11006;SDS011;8186;57.652;11.968;2022-09-21T14:43:42;4.10;;;0.90;;
11006;SDS011;8186;57.652;11.968;2022-09-21T14:46:23;1.40;;;0.60;;
11006;SDS011;8186;57.652;11.968;2022-09-21T14:49:11;2.10;;;0.93;;
11006;SDS011;8186;57.652;11.968;2022-09-21T14:51:47;3.50;;;0.87;;
11006;SDS011;8186;57.652;11.968;2022-09-21T14:54:22;1.97;;;0.80;;
11006;SDS011;8186;57.652;11.968;2022-09-21T14:56:59;3.47;;;0.73;;
11006;SDS011;8186;57.652;11.968;2022-09-21T14:59:41;2.50;;;1.00;;
11006;SDS011;8186;57.652;11.968;2022-09-21T15:02:20;3.07;;;1.27;;
11006;SDS011;8186;57.652;11.968;2022-09-21T15:07:41;3.00;;;0.90;;
11006;SDS011;8186;57.652;11.968;2022-09-21T15:10:31;1.77;;;0.70;;
11006;SDS011;8186;57.652;11.968;2022-09-21T15:16:17;2.97;;;1.17;;
11006;SDS011;8186;57.652;11.968;2022-09-21T15:18:59;4.93;;;0.90;;
11006;SDS011;8186;57.652;11.968;2022-09-21T15:21:29;3.43;;;1.00;;
11006;SDS011;8186;57.652;11.968;2022-09-21T15:23:57;2.50;;;1.00;;
11006;SDS011;8186;57.652;11.968;2022-09-21T15:26:27;4.33;;;1.10;;
11006;SDS011;8186;57.652;11.968;2022-09-21T15:28:56;4.27;;;1.10;;
11006;SDS011;8186;57.652;11.968;2022-09-21T15:31:24;4.13;;;1.07;;
11006;SDS011;8186;57.652;11.968;2022-09-21T15:33:52;3.47;;;1.10;;
11006;SDS011;8186;57.652;11.968;2022-09-21T15:36:20;4.03;;;1.57;;
11006;SDS011;8186;57.652;11.968;2022-09-21T15:38:48;5.97;;;0.90;;
11006;SDS011;8186;57.652;11.968;2022-09-21T15:44:13;1.83;;;0.80;;
11006;SDS011;8186;57.652;11.968;2022-09-21T15:46:42;2.87;;;0.90;;